sensor_id;sensor_type;location;lat;lon;timestamp;temperature;humidity
5172;DHT22;2605;49.770;9.868;2023-12-20T00:00:13;4.50;99.90
5172;DHT22;2605;49.770;9.868;2023-12-20T00:02:38;4.60;99.90
5172;DHT22;2605;49.770;9.868;2023-12-20T00:05:04;4.50;99.90
5172;DHT22;2605;49.770;9.868;2023-12-20T00:07:30;4.50;99.90
5172;DHT22;2605;49.770;9.868;2023-12-20T00:09:55;4.50;99.90
5172;DHT22;2605;49.770;9.868;2023-12-20T00:12:21;4.50;99.90
5172;DHT22;2605;49.770;9.868;2023-12-20T00:14:46;4.50;99.90
5172;DHT22;2605;49.770;9.868;2023-12-20T00:17:12;4.50;99.90
5172;DHT22;2605;49.770;9.868;2023-12-20T00:19:37;4.50;99.90
5172;DHT22;2605;49.770;9.868;2023-12-20T00:22:03;4.50;99.90
5172;DHT22;2605;49.770;9.868;2023-12-20T00:24:28;4.40;99.90
5172;DHT22;2605;49.770;9.868;2023-12-20T00:26:54;4.40;99.90
5172;DHT22;2605;49.770;9.868;2023-12-20T00:29:19;4.40;99.90
5172;DHT22;2605;49.770;9.868;2023-12-20T00:31:45;4.40;99.90
5172;DHT22;2605;49.770;9.868;2023-12-20T00:34:10;4.40;99.90
5172;DHT22;2605;49.770;9.868;2023-12-20T00:36:36;4.40;99.90
5172;DHT22;2605;49.770;9.868;2023-12-20T00:39:01;4.40;99.90
5172;DHT22;2605;49.770;9.868;2023-12-20T00:41:27;4.30;99.90
5172;DHT22;2605;49.770;9.868;2023-12-20T00:43:53;4.30;99.90
5172;DHT22;2605;49.770;9.868;2023-12-20T00:46:18;4.30;99.90
5172;DHT22;2605;49.770;9.868;2023-12-20T00:48:44;4.40;99.90
5172;DHT22;2605;49.770;9.868;2023-12-20T00:51:11;4.30;99.90
5172;DHT22;2605;49.770;9.868;2023-12-20T00:53:36;4.30;99.90
5172;DHT22;2605;49.770;9.868;2023-12-20T00:56:02;4.30;99.90
5172;DHT22;2605;49.770;9.868;2023-12-20T00:58:27;4.30;99.90
5172;DHT22;2605;49.770;9.868;2023-12-20T01:00:53;4.20;99.90
5172;DHT22;2605;49.770;9.868;2023-12-20T01:03:19;4.20;99.90
5172;DHT22;2605;49.770;9.868;2023-12-20T01:05:44;4.30;99.90
5172;DHT22;2605;49.770;9.868;2023-12-20T01:08:10;4.20;99.90
5172;DHT22;2605;49.770;9.868;2023-12-20T01:10:35;4.20;99.90
5172;DHT22;2605;49.770;9.868;2023-12-20T01:13:01;4.20;99.90
5172;DHT22;2605;49.770;9.868;2023-12-20T01:15:26;4.20;99.90
5172;DHT22;2605;49.770;9.868;2023-12-20T01:17:52;4.20;99.90
5172;DHT22;2605;49.770;9.868;2023-12-20T01:20:17;4.10;99.90
5172;DHT22;2605;49.770;9.868;2023-12-20T01:22:45;4.10;99.90
5172;DHT22;2605;49.770;9.868;2023-12-20T01:25:11;4.00;99.90
5172;DHT22;2605;49.770;9.868;2023-12-20T01:27:36;4.00;99.90
5172;DHT22;2605;49.770;9.868;2023-12-20T01:30:02;4.00;99.90
5172;DHT22;2605;49.770;9.868;2023-12-20T01:32:28;3.90;99.90
5172;DHT22;2605;49.770;9.868;2023-12-20T01:34:53;4.00;99.90
5172;DHT22;2605;49.770;9.868;2023-12-20T01:37:18;3.90;99.90
5172;DHT22;2605;49.770;9.868;2023-12-20T01:39:44;3.90;99.90
5172;DHT22;2605;49.770;9.868;2023-12-20T01:42:09;3.90;99.90
5172;DHT22;2605;49.770;9.868;2023-12-20T01:44:35;3.90;99.90
5172;DHT22;2605;49.770;9.868;2023-12-20T01:47:00;3.90;99.90
5172;DHT22;2605;49.770;9.868;2023-12-20T01:49:27;3.90;99.90
5172;DHT22;2605;49.770;9.868;2023-12-20T01:51:53;3.90;99.90
5172;DHT22;2605;49.770;9.868;2023-12-20T01:54:19;3.80;99.90
5172;DHT22;2605;49.770;9.868;2023-12-20T01:56:45;3.80;99.90
5172;DHT22;2605;49.770;9.868;2023-12-20T01:59:11;3.80;99.90
5172;DHT22;2605;49.770;9.868;2023-12-20T02:01:37;3.80;99.90
5172;DHT22;2605;49.770;9.868;2023-12-20T02:04:03;3.80;99.90
5172;DHT22;2605;49.770;9.868;2023-12-20T02:06:30;3.80;99.90
5172;DHT22;2605;49.770;9.868;2023-12-20T02:09:00;3.80;99.90
5172;DHT22;2605;49.770;9.868;2023-12-20T02:11:26;3.80;99.90
5172;DHT22;2605;49.770;9.868;2023-12-20T02:13:53;3.80;99.90
5172;DHT22;2605;49.770;9.868;2023-12-20T02:16:18;3.80;99.90
5172;DHT22;2605;49.770;9.868;2023-12-20T02:18:44;3.80;99.90
5172;DHT22;2605;49.770;9.868;2023-12-20T02:21:10;3.80;99.90
5172;DHT22;2605;49.770;9.868;2023-12-20T02:23:35;3.80;99.90
5172;DHT22;2605;49.770;9.868;2023-12-20T02:26:01;3.70;99.90
5172;DHT22;2605;49.770;9.868;2023-12-20T02:28:28;3.70;99.90
5172;DHT22;2605;49.770;9.868;2023-12-20T02:30:53;3.70;99.90
5172;DHT22;2605;49.770;9.868;2023-12-20T02:33:19;3.70;99.90
5172;DHT22;2605;49.770;9.868;2023-12-20T02:35:44;3.70;99.90
5172;DHT22;2605;49.770;9.868;2023-12-20T02:38:10;3.60;99.90
5172;DHT22;2605;49.770;9.868;2023-12-20T02:40:35;3.60;99.90
5172;DHT22;2605;49.770;9.868;2023-12-20T02:43:01;3.60;99.90
5172;DHT22;2605;49.770;9.868;2023-12-20T02:45:27;3.50;99.90
5172;DHT22;2605;49.770;9.868;2023-12-20T02:47:52;3.60;99.90
5172;DHT22;2605;49.770;9.868;2023-12-20T02:50:18;3.50;99.90
5172;DHT22;2605;49.770;9.868;2023-12-20T02:52:45;3.50;99.90
5172;DHT22;2605;49.770;9.868;2023-12-20T02:55:11;3.60;99.90
5172;DHT22;2605;49.770;9.868;2023-12-20T02:57:36;3.50;99.90
5172;DHT22;2605;49.770;9.868;2023-12-20T03:00:08;3.50;99.90
5172;DHT22;2605;49.770;9.868;2023-12-20T03:02:34;3.50;99.90
5172;DHT22;2605;49.770;9.868;2023-12-20T03:05:00;3.40;99.90
5172;DHT22;2605;49.770;9.868;2023-12-20T03:07:25;3.40;99.90
5172;DHT22;2605;49.770;9.868;2023-12-20T03:09:51;3.40;99.90
5172;DHT22;2605;49.770;9.868;2023-12-20T03:12:16;3.40;99.90
5172;DHT22;2605;49.770;9.868;2023-12-20T03:14:43;3.40;99.90
5172;DHT22;2605;49.770;9.868;2023-12-20T03:17:09;3.40;99.90
5172;DHT22;2605;49.770;9.868;2023-12-20T03:19:34;3.40;99.90
5172;DHT22;2605;49.770;9.868;2023-12-20T03:22:00;3.40;99.90
5172;DHT22;2605;49.770;9.868;2023-12-20T03:24:26;3.40;99.90
5172;DHT22;2605;49.770;9.868;2023-12-20T03:26:51;3.40;99.90
5172;DHT22;2605;49.770;9.868;2023-12-20T03:29:17;3.40;99.90
5172;DHT22;2605;49.770;9.868;2023-12-20T03:31:42;3.50;99.90
5172;DHT22;2605;49.770;9.868;2023-12-20T03:34:08;3.50;99.90
5172;DHT22;2605;49.770;9.868;2023-12-20T03:36:33;3.40;99.90
5172;DHT22;2605;49.770;9.868;2023-12-20T03:38:59;3.50;99.90
5172;DHT22;2605;49.770;9.868;2023-12-20T03:41:24;3.50;99.90
5172;DHT22;2605;49.770;9.868;2023-12-20T03:43:50;3.40;99.90
5172;DHT22;2605;49.770;9.868;2023-12-20T03:46:15;3.50;99.90
5172;DHT22;2605;49.770;9.868;2023-12-20T03:48:41;3.50;99.90
5172;DHT22;2605;49.770;9.868;2023-12-20T03:51:07;3.50;99.90
5172;DHT22;2605;49.770;9.868;2023-12-20T03:53:32;3.50;99.90
5172;DHT22;2605;49.770;9.868;2023-12-20T03:55:58;3.50;99.90
5172;DHT22;2605;49.770;9.868;2023-12-20T03:58:23;3.50;99.90
5172;DHT22;2605;49.770;9.868;2023-12-20T04:00:49;3.50;99.90
5172;DHT22;2605;49.770;9.868;2023-12-20T04:03:14;3.50;99.90
5172;DHT22;2605;49.770;9.868;2023-12-20T04:05:40;3.50;99.90
5172;DHT22;2605;49.770;9.868;2023-12-20T04:08:06;3.50;99.90
5172;DHT22;2605;49.770;9.868;2023-12-20T04:10:35;3.40;99.90
5172;DHT22;2605;49.770;9.868;2023-12-20T04:13:03;3.50;99.90
5172;DHT22;2605;49.770;9.868;2023-12-20T04:15:28;3.50;99.90
5172;DHT22;2605;49.770;9.868;2023-12-20T04:17:54;3.50;99.90
5172;DHT22;2605;49.770;9.868;2023-12-20T04:20:19;3.40;99.90
5172;DHT22;2605;49.770;9.868;2023-12-20T04:22:45;3.50;99.90
5172;DHT22;2605;49.770;9.868;2023-12-20T04:25:10;3.50;99.90
5172;DHT22;2605;49.770;9.868;2023-12-20T04:27:36;3.50;99.90
5172;DHT22;2605;49.770;9.868;2023-12-20T04:30:01;3.50;99.90
5172;DHT22;2605;49.770;9.868;2023-12-20T04:32:26;3.50;99.90
5172;DHT22;2605;49.770;9.868;2023-12-20T04:34:52;3.50;99.90
5172;DHT22;2605;49.770;9.868;2023-12-20T04:37:18;3.50;99.90
5172;DHT22;2605;49.770;9.868;2023-12-20T04:39:43;3.40;99.90
5172;DHT22;2605;49.770;9.868;2023-12-20T04:42:08;3.50;99.90
5172;DHT22;2605;49.770;9.868;2023-12-20T04:44:34;3.50;99.90
5172;DHT22;2605;49.770;9.868;2023-12-20T04:46:59;3.50;99.90
5172;DHT22;2605;49.770;9.868;2023-12-20T04:49:25;3.50;99.90
5172;DHT22;2605;49.770;9.868;2023-12-20T04:51:51;3.50;99.90
5172;DHT22;2605;49.770;9.868;2023-12-20T04:54:16;3.50;99.90
5172;DHT22;2605;49.770;9.868;2023-12-20T04:56:42;3.60;99.90
5172;DHT22;2605;49.770;9.868;2023-12-20T04:59:07;3.60;99.90
5172;DHT22;2605;49.770;9.868;2023-12-20T05:01:33;3.60;99.90
5172;DHT22;2605;49.770;9.868;2023-12-20T05:03:59;3.70;99.90
5172;DHT22;2605;49.770;9.868;2023-12-20T05:06:24;3.60;99.90
5172;DHT22;2605;49.770;9.868;2023-12-20T05:08:50;3.60;99.90
5172;DHT22;2605;49.770;9.868;2023-12-20T05:11:15;3.60;99.90
5172;DHT22;2605;49.770;9.868;2023-12-20T05:13:41;3.60;99.90
5172;DHT22;2605;49.770;9.868;2023-12-20T05:16:06;3.60;99.90
5172;DHT22;2605;49.770;9.868;2023-12-20T05:18:32;3.70;99.90
5172;DHT22;2605;49.770;9.868;2023-12-20T05:20:58;3.70;99.90
5172;DHT22;2605;49.770;9.868;2023-12-20T05:23:23;3.70;99.90
5172;DHT22;2605;49.770;9.868;2023-12-20T05:25:49;3.70;99.90
5172;DHT22;2605;49.770;9.868;2023-12-20T05:28:15;3.70;99.90
5172;DHT22;2605;49.770;9.868;2023-12-20T05:30:40;3.70;99.90
5172;DHT22;2605;49.770;9.868;2023-12-20T05:33:06;3.70;99.90
5172;DHT22;2605;49.770;9.868;2023-12-20T05:35:31;3.70;99.90
5172;DHT22;2605;49.770;9.868;2023-12-20T05:37:57;3.80;99.90
5172;DHT22;2605;49.770;9.868;2023-12-20T05:40:22;3.80;99.90
5172;DHT22;2605;49.770;9.868;2023-12-20T05:42:48;3.80;99.90
5172;DHT22;2605;49.770;9.868;2023-12-20T05:45:14;3.80;99.90
5172;DHT22;2605;49.770;9.868;2023-12-20T05:47:40;3.80;99.90
5172;DHT22;2605;49.770;9.868;2023-12-20T05:50:06;3.90;99.90
5172;DHT22;2605;49.770;9.868;2023-12-20T05:52:31;3.80;99.90
5172;DHT22;2605;49.770;9.868;2023-12-20T05:54:57;3.80;99.90
5172;DHT22;2605;49.770;9.868;2023-12-20T05:57:26;3.90;99.90
5172;DHT22;2605;49.770;9.868;2023-12-20T05:59:52;3.90;99.90
5172;DHT22;2605;49.770;9.868;2023-12-20T06:02:17;3.80;99.90
5172;DHT22;2605;49.770;9.868;2023-12-20T06:04:43;3.80;99.90
5172;DHT22;2605;49.770;9.868;2023-12-20T06:07:11;3.80;99.90
5172;DHT22;2605;49.770;9.868;2023-12-20T06:09:40;3.90;99.90
5172;DHT22;2605;49.770;9.868;2023-12-20T06:12:07;4.00;99.90
5172;DHT22;2605;49.770;9.868;2023-12-20T06:14:34;3.90;99.90
5172;DHT22;2605;49.770;9.868;2023-12-20T06:17:00;3.90;99.90
5172;DHT22;2605;49.770;9.868;2023-12-20T06:19:26;4.00;99.90
5172;DHT22;2605;49.770;9.868;2023-12-20T06:21:52;4.00;99.90
5172;DHT22;2605;49.770;9.868;2023-12-20T06:24:17;4.00;99.90
5172;DHT22;2605;49.770;9.868;2023-12-20T06:26:43;4.00;99.90
5172;DHT22;2605;49.770;9.868;2023-12-20T06:29:08;4.00;99.90
5172;DHT22;2605;49.770;9.868;2023-12-20T06:31:34;4.00;99.90
5172;DHT22;2605;49.770;9.868;2023-12-20T06:33:59;4.10;99.90
5172;DHT22;2605;49.770;9.868;2023-12-20T06:36:26;4.10;99.90
5172;DHT22;2605;49.770;9.868;2023-12-20T06:38:51;4.10;99.90
5172;DHT22;2605;49.770;9.868;2023-12-20T06:41:17;4.10;99.90
5172;DHT22;2605;49.770;9.868;2023-12-20T06:43:43;4.20;99.90
5172;DHT22;2605;49.770;9.868;2023-12-20T06:46:08;4.10;99.90
5172;DHT22;2605;49.770;9.868;2023-12-20T06:48:34;4.10;99.90
5172;DHT22;2605;49.770;9.868;2023-12-20T06:51:01;4.20;99.90
5172;DHT22;2605;49.770;9.868;2023-12-20T06:53:29;4.10;99.90
5172;DHT22;2605;49.770;9.868;2023-12-20T06:55:55;4.10;99.90
5172;DHT22;2605;49.770;9.868;2023-12-20T06:58:22;4.10;99.90
5172;DHT22;2605;49.770;9.868;2023-12-20T07:00:48;4.10;99.90
5172;DHT22;2605;49.770;9.868;2023-12-20T07:03:13;4.10;99.90
5172;DHT22;2605;49.770;9.868;2023-12-20T07:05:42;4.10;99.90
5172;DHT22;2605;49.770;9.868;2023-12-20T07:08:07;4.10;99.90
5172;DHT22;2605;49.770;9.868;2023-12-20T07:10:33;4.10;99.90
5172;DHT22;2605;49.770;9.868;2023-12-20T07:12:58;4.10;99.90
5172;DHT22;2605;49.770;9.868;2023-12-20T07:15:24;4.00;99.90
5172;DHT22;2605;49.770;9.868;2023-12-20T07:17:49;4.00;99.90
5172;DHT22;2605;49.770;9.868;2023-12-20T07:20:15;3.90;99.90
5172;DHT22;2605;49.770;9.868;2023-12-20T07:22:40;3.90;99.90
5172;DHT22;2605;49.770;9.868;2023-12-20T07:25:07;3.90;99.90
5172;DHT22;2605;49.770;9.868;2023-12-20T07:27:32;3.90;99.90
5172;DHT22;2605;49.770;9.868;2023-12-20T07:29:58;3.90;99.90
5172;DHT22;2605;49.770;9.868;2023-12-20T07:32:23;3.80;99.90
5172;DHT22;2605;49.770;9.868;2023-12-20T07:34:49;3.80;99.90
5172;DHT22;2605;49.770;9.868;2023-12-20T07:37:14;3.70;99.90
5172;DHT22;2605;49.770;9.868;2023-12-20T07:39:40;3.60;99.90
5172;DHT22;2605;49.770;9.868;2023-12-20T07:42:07;3.60;99.90
5172;DHT22;2605;49.770;9.868;2023-12-20T07:44:32;3.60;99.90
5172;DHT22;2605;49.770;9.868;2023-12-20T07:46:58;3.60;99.90
5172;DHT22;2605;49.770;9.868;2023-12-20T07:49:23;3.60;99.90
5172;DHT22;2605;49.770;9.868;2023-12-20T07:51:49;3.50;99.90
5172;DHT22;2605;49.770;9.868;2023-12-20T07:54:15;3.50;99.90
5172;DHT22;2605;49.770;9.868;2023-12-20T07:56:41;3.50;99.90
5172;DHT22;2605;49.770;9.868;2023-12-20T07:59:06;3.50;99.90
5172;DHT22;2605;49.770;9.868;2023-12-20T08:01:32;3.40;99.90
5172;DHT22;2605;49.770;9.868;2023-12-20T08:03:57;3.50;99.90
5172;DHT22;2605;49.770;9.868;2023-12-20T08:06:23;3.40;99.90
5172;DHT22;2605;49.770;9.868;2023-12-20T08:08:49;3.40;99.90
5172;DHT22;2605;49.770;9.868;2023-12-20T08:11:14;3.40;99.90
5172;DHT22;2605;49.770;9.868;2023-12-20T08:13:40;3.40;99.90
5172;DHT22;2605;49.770;9.868;2023-12-20T08:16:05;3.40;99.90
5172;DHT22;2605;49.770;9.868;2023-12-20T08:18:31;3.40;99.90
5172;DHT22;2605;49.770;9.868;2023-12-20T08:20:56;3.40;99.90
5172;DHT22;2605;49.770;9.868;2023-12-20T08:23:22;3.50;99.90
5172;DHT22;2605;49.770;9.868;2023-12-20T08:25:47;3.50;99.90
5172;DHT22;2605;49.770;9.868;2023-12-20T08:28:14;3.50;99.90
5172;DHT22;2605;49.770;9.868;2023-12-20T08:30:39;3.60;99.90
5172;DHT22;2605;49.770;9.868;2023-12-20T08:33:06;3.60;99.90
5172;DHT22;2605;49.770;9.868;2023-12-20T08:35:36;3.60;99.90
5172;DHT22;2605;49.770;9.868;2023-12-20T08:38:05;3.60;99.90
5172;DHT22;2605;49.770;9.868;2023-12-20T08:40:31;3.60;99.90
5172;DHT22;2605;49.770;9.868;2023-12-20T08:42:56;3.70;99.90
5172;DHT22;2605;49.770;9.868;2023-12-20T08:45:22;3.80;99.90
5172;DHT22;2605;49.770;9.868;2023-12-20T08:47:47;4.00;99.90
5172;DHT22;2605;49.770;9.868;2023-12-20T08:50:13;4.10;99.90
5172;DHT22;2605;49.770;9.868;2023-12-20T08:52:38;4.20;99.90
5172;DHT22;2605;49.770;9.868;2023-12-20T08:55:04;4.30;99.90
5172;DHT22;2605;49.770;9.868;2023-12-20T08:57:30;4.40;99.90
5172;DHT22;2605;49.770;9.868;2023-12-20T08:59:57;4.30;99.90
5172;DHT22;2605;49.770;9.868;2023-12-20T09:02:22;4.40;99.90
5172;DHT22;2605;49.770;9.868;2023-12-20T09:04:48;4.40;99.90
5172;DHT22;2605;49.770;9.868;2023-12-20T09:07:26;4.30;99.90
5172;DHT22;2605;49.770;9.868;2023-12-20T09:09:52;4.20;99.90
5172;DHT22;2605;49.770;9.868;2023-12-20T09:12:19;4.20;99.90
5172;DHT22;2605;49.770;9.868;2023-12-20T09:14:46;4.20;99.90
5172;DHT22;2605;49.770;9.868;2023-12-20T09:17:12;4.20;99.90
5172;DHT22;2605;49.770;9.868;2023-12-20T09:19:37;4.30;99.90
5172;DHT22;2605;49.770;9.868;2023-12-20T09:22:03;4.30;99.90
5172;DHT22;2605;49.770;9.868;2023-12-20T09:24:30;4.30;99.90
5172;DHT22;2605;49.770;9.868;2023-12-20T09:26:56;4.40;99.90
5172;DHT22;2605;49.770;9.868;2023-12-20T09:29:21;4.50;99.90
5172;DHT22;2605;49.770;9.868;2023-12-20T09:31:47;4.50;99.90
5172;DHT22;2605;49.770;9.868;2023-12-20T09:34:15;4.60;99.90
5172;DHT22;2605;49.770;9.868;2023-12-20T09:36:41;4.70;99.90
5172;DHT22;2605;49.770;9.868;2023-12-20T09:39:12;4.70;99.90
5172;DHT22;2605;49.770;9.868;2023-12-20T09:41:44;4.70;99.90
5172;DHT22;2605;49.770;9.868;2023-12-20T09:44:15;4.80;99.90
5172;DHT22;2605;49.770;9.868;2023-12-20T09:46:44;4.80;99.90
5172;DHT22;2605;49.770;9.868;2023-12-20T09:49:13;4.70;99.90
5172;DHT22;2605;49.770;9.868;2023-12-20T09:51:39;4.70;99.90
5172;DHT22;2605;49.770;9.868;2023-12-20T09:54:06;4.70;99.90
5172;DHT22;2605;49.770;9.868;2023-12-20T09:56:31;4.80;99.90
5172;DHT22;2605;49.770;9.868;2023-12-20T09:58:57;4.80;99.90
5172;DHT22;2605;49.770;9.868;2023-12-20T10:01:23;4.80;99.90
5172;DHT22;2605;49.770;9.868;2023-12-20T10:03:51;4.80;99.90
5172;DHT22;2605;49.770;9.868;2023-12-20T10:06:19;4.80;99.90
5172;DHT22;2605;49.770;9.868;2023-12-20T10:08:45;4.80;99.90
5172;DHT22;2605;49.770;9.868;2023-12-20T10:11:10;4.80;99.90
5172;DHT22;2605;49.770;9.868;2023-12-20T10:13:43;4.80;99.90
5172;DHT22;2605;49.770;9.868;2023-12-20T10:16:08;4.90;99.90
5172;DHT22;2605;49.770;9.868;2023-12-20T10:18:34;4.90;99.90
5172;DHT22;2605;49.770;9.868;2023-12-20T10:21:00;4.90;99.90
5172;DHT22;2605;49.770;9.868;2023-12-20T10:23:26;4.90;99.90
5172;DHT22;2605;49.770;9.868;2023-12-20T10:26:01;4.90;99.90
5172;DHT22;2605;49.770;9.868;2023-12-20T10:28:28;4.90;99.90
5172;DHT22;2605;49.770;9.868;2023-12-20T10:30:58;4.90;99.90
5172;DHT22;2605;49.770;9.868;2023-12-20T10:33:27;4.90;99.90
5172;DHT22;2605;49.770;9.868;2023-12-20T10:35:54;5.00;99.90
5172;DHT22;2605;49.770;9.868;2023-12-20T10:38:20;5.00;99.90
5172;DHT22;2605;49.770;9.868;2023-12-20T10:40:46;5.00;99.90
5172;DHT22;2605;49.770;9.868;2023-12-20T10:43:12;5.00;99.90
5172;DHT22;2605;49.770;9.868;2023-12-20T10:45:37;5.10;99.90
5172;DHT22;2605;49.770;9.868;2023-12-20T10:48:04;5.20;99.90
5172;DHT22;2605;49.770;9.868;2023-12-20T10:50:30;5.30;99.90
5172;DHT22;2605;49.770;9.868;2023-12-20T10:52:56;5.30;99.90
5172;DHT22;2605;49.770;9.868;2023-12-20T10:55:23;5.30;99.90
5172;DHT22;2605;49.770;9.868;2023-12-20T10:57:54;5.40;99.90
5172;DHT22;2605;49.770;9.868;2023-12-20T11:00:24;5.40;99.90
5172;DHT22;2605;49.770;9.868;2023-12-20T11:02:50;5.50;99.90
5172;DHT22;2605;49.770;9.868;2023-12-20T11:05:22;5.40;99.90
5172;DHT22;2605;49.770;9.868;2023-12-20T11:10:41;5.40;99.90
5172;DHT22;2605;49.770;9.868;2023-12-20T11:13:35;5.40;99.90
5172;DHT22;2605;49.770;9.868;2023-12-20T11:16:02;6.40;99.90
5172;DHT22;2605;49.770;9.868;2023-12-20T11:18:29;5.40;99.90
5172;DHT22;2605;49.770;9.868;2023-12-20T11:20:55;5.40;99.90
5172;DHT22;2605;49.770;9.868;2023-12-20T11:23:25;5.40;99.90
5172;DHT22;2605;49.770;9.868;2023-12-20T11:25:55;5.50;99.90
5172;DHT22;2605;49.770;9.868;2023-12-20T11:28:24;5.50;99.90
5172;DHT22;2605;49.770;9.868;2023-12-20T11:30:53;5.50;99.90
5172;DHT22;2605;49.770;9.868;2023-12-20T11:33:23;5.40;99.90
5172;DHT22;2605;49.770;9.868;2023-12-20T11:35:51;5.40;99.90
5172;DHT22;2605;49.770;9.868;2023-12-20T11:38:20;5.60;99.90
5172;DHT22;2605;49.770;9.868;2023-12-20T11:40:48;5.50;99.90
5172;DHT22;2605;49.770;9.868;2023-12-20T11:43:34;5.50;99.90
5172;DHT22;2605;49.770;9.868;2023-12-20T11:46:07;5.50;99.90
5172;DHT22;2605;49.770;9.868;2023-12-20T11:48:38;5.40;99.90
5172;DHT22;2605;49.770;9.868;2023-12-20T11:51:11;5.50;99.90
5172;DHT22;2605;49.770;9.868;2023-12-20T11:53:37;5.40;99.90
5172;DHT22;2605;49.770;9.868;2023-12-20T11:56:04;5.50;99.90
5172;DHT22;2605;49.770;9.868;2023-12-20T11:58:31;5.50;99.90
5172;DHT22;2605;49.770;9.868;2023-12-20T12:00:57;5.40;99.90
5172;DHT22;2605;49.770;9.868;2023-12-20T12:03:22;5.50;99.90
5172;DHT22;2605;49.770;9.868;2023-12-20T12:05:49;5.50;99.90
5172;DHT22;2605;49.770;9.868;2023-12-20T12:08:15;5.50;99.90
5172;DHT22;2605;49.770;9.868;2023-12-20T12:10:41;5.40;99.90
5172;DHT22;2605;49.770;9.868;2023-12-20T12:13:07;5.40;99.90
5172;DHT22;2605;49.770;9.868;2023-12-20T12:15:33;6.00;99.90
5172;DHT22;2605;49.770;9.868;2023-12-20T12:17:58;5.50;99.90
5172;DHT22;2605;49.770;9.868;2023-12-20T12:20:24;5.50;99.90
5172;DHT22;2605;49.770;9.868;2023-12-20T12:23:05;5.60;99.90
5172;DHT22;2605;49.770;9.868;2023-12-20T12:25:32;5.60;99.90
5172;DHT22;2605;49.770;9.868;2023-12-20T12:27:58;6.30;99.90
5172;DHT22;2605;49.770;9.868;2023-12-20T12:30:25;5.50;99.90
5172;DHT22;2605;49.770;9.868;2023-12-20T12:32:52;5.60;99.90
5172;DHT22;2605;49.770;9.868;2023-12-20T12:35:18;5.50;99.90
5172;DHT22;2605;49.770;9.868;2023-12-20T12:37:43;5.60;99.90
5172;DHT22;2605;49.770;9.868;2023-12-20T12:40:13;5.50;99.90
5172;DHT22;2605;49.770;9.868;2023-12-20T12:42:40;5.60;99.90
5172;DHT22;2605;49.770;9.868;2023-12-20T12:45:07;5.40;99.90
5172;DHT22;2605;49.770;9.868;2023-12-20T12:47:33;5.40;99.90
5172;DHT22;2605;49.770;9.868;2023-12-20T12:49:59;5.40;99.90
5172;DHT22;2605;49.770;9.868;2023-12-20T12:52:24;5.30;99.90
5172;DHT22;2605;49.770;9.868;2023-12-20T12:54:50;5.30;99.90
5172;DHT22;2605;49.770;9.868;2023-12-20T12:57:16;5.30;99.90
5172;DHT22;2605;49.770;9.868;2023-12-20T12:59:42;5.20;99.90
5172;DHT22;2605;49.770;9.868;2023-12-20T13:02:09;5.20;99.90
5172;DHT22;2605;49.770;9.868;2023-12-20T13:04:34;5.30;99.90
5172;DHT22;2605;49.770;9.868;2023-12-20T13:07:00;5.30;99.90
5172;DHT22;2605;49.770;9.868;2023-12-20T13:09:26;5.20;99.90
5172;DHT22;2605;49.770;9.868;2023-12-20T13:11:51;5.20;99.90
5172;DHT22;2605;49.770;9.868;2023-12-20T13:14:17;5.20;99.90
5172;DHT22;2605;49.770;9.868;2023-12-20T13:16:42;5.20;99.90
5172;DHT22;2605;49.770;9.868;2023-12-20T13:19:08;5.10;99.90
5172;DHT22;2605;49.770;9.868;2023-12-20T13:21:35;5.10;99.90
5172;DHT22;2605;49.770;9.868;2023-12-20T13:24:01;5.10;99.90
5172;DHT22;2605;49.770;9.868;2023-12-20T13:26:26;5.10;99.90
5172;DHT22;2605;49.770;9.868;2023-12-20T13:28:52;5.10;99.90
5172;DHT22;2605;49.770;9.868;2023-12-20T13:31:17;5.10;99.90
5172;DHT22;2605;49.770;9.868;2023-12-20T13:33:43;5.10;99.90
5172;DHT22;2605;49.770;9.868;2023-12-20T13:36:08;5.10;99.90
5172;DHT22;2605;49.770;9.868;2023-12-20T13:38:34;5.10;99.90
5172;DHT22;2605;49.770;9.868;2023-12-20T13:40:59;5.10;99.90
5172;DHT22;2605;49.770;9.868;2023-12-20T13:43:25;5.10;99.90
5172;DHT22;2605;49.770;9.868;2023-12-20T13:45:51;5.00;99.90
5172;DHT22;2605;49.770;9.868;2023-12-20T13:48:16;5.00;99.90
5172;DHT22;2605;49.770;9.868;2023-12-20T13:50:42;5.00;99.90
5172;DHT22;2605;49.770;9.868;2023-12-20T13:53:07;5.00;99.90
5172;DHT22;2605;49.770;9.868;2023-12-20T13:55:33;5.00;99.90
5172;DHT22;2605;49.770;9.868;2023-12-20T13:57:58;5.10;99.90
5172;DHT22;2605;49.770;9.868;2023-12-20T14:00:24;5.20;99.90
5172;DHT22;2605;49.770;9.868;2023-12-20T14:02:52;5.20;99.90
5172;DHT22;2605;49.770;9.868;2023-12-20T14:05:17;5.20;99.90
5172;DHT22;2605;49.770;9.868;2023-12-20T14:07:44;5.40;99.90
5172;DHT22;2605;49.770;9.868;2023-12-20T14:10:11;5.50;99.90
5172;DHT22;2605;49.770;9.868;2023-12-20T14:12:38;5.40;99.90
5172;DHT22;2605;49.770;9.868;2023-12-20T14:15:04;5.40;99.90
5172;DHT22;2605;49.770;9.868;2023-12-20T14:17:29;5.30;99.90
5172;DHT22;2605;49.770;9.868;2023-12-20T14:19:55;5.30;99.90
5172;DHT22;2605;49.770;9.868;2023-12-20T14:22:20;5.30;99.90
5172;DHT22;2605;49.770;9.868;2023-12-20T14:24:46;5.20;99.90
5172;DHT22;2605;49.770;9.868;2023-12-20T14:27:11;5.30;99.90
5172;DHT22;2605;49.770;9.868;2023-12-20T14:29:37;5.20;99.90
5172;DHT22;2605;49.770;9.868;2023-12-20T14:32:06;5.10;99.90
5172;DHT22;2605;49.770;9.868;2023-12-20T14:34:31;5.10;99.90
5172;DHT22;2605;49.770;9.868;2023-12-20T14:36:57;5.10;99.90
5172;DHT22;2605;49.770;9.868;2023-12-20T14:39:22;5.10;99.90
5172;DHT22;2605;49.770;9.868;2023-12-20T14:41:48;5.10;99.90
5172;DHT22;2605;49.770;9.868;2023-12-20T14:44:13;5.00;99.90
5172;DHT22;2605;49.770;9.868;2023-12-20T14:46:39;5.00;99.90
5172;DHT22;2605;49.770;9.868;2023-12-20T14:49:07;4.90;99.90
5172;DHT22;2605;49.770;9.868;2023-12-20T14:51:33;5.00;99.90
5172;DHT22;2605;49.770;9.868;2023-12-20T14:53:58;5.10;99.90
5172;DHT22;2605;49.770;9.868;2023-12-20T14:56:24;4.90;99.90
5172;DHT22;2605;49.770;9.868;2023-12-20T14:58:51;5.00;99.90
5172;DHT22;2605;49.770;9.868;2023-12-20T15:01:16;4.90;99.90
5172;DHT22;2605;49.770;9.868;2023-12-20T15:03:46;5.00;99.90
5172;DHT22;2605;49.770;9.868;2023-12-20T15:06:12;5.30;99.90
5172;DHT22;2605;49.770;9.868;2023-12-20T15:08:37;5.30;99.90
5172;DHT22;2605;49.770;9.868;2023-12-20T15:11:03;5.20;99.90
5172;DHT22;2605;49.770;9.868;2023-12-20T15:13:29;5.00;99.90
5172;DHT22;2605;49.770;9.868;2023-12-20T15:15:56;5.00;99.90
5172;DHT22;2605;49.770;9.868;2023-12-20T15:18:21;4.90;99.90
5172;DHT22;2605;49.770;9.868;2023-12-20T15:20:47;4.80;99.90
5172;DHT22;2605;49.770;9.868;2023-12-20T15:23:13;4.70;99.90
5172;DHT22;2605;49.770;9.868;2023-12-20T15:25:38;4.70;99.90
5172;DHT22;2605;49.770;9.868;2023-12-20T15:28:04;4.70;99.90
5172;DHT22;2605;49.770;9.868;2023-12-20T15:30:30;4.70;99.90
5172;DHT22;2605;49.770;9.868;2023-12-20T15:32:55;4.60;99.90
5172;DHT22;2605;49.770;9.868;2023-12-20T15:35:22;4.70;99.90
5172;DHT22;2605;49.770;9.868;2023-12-20T15:37:47;4.70;99.90
5172;DHT22;2605;49.770;9.868;2023-12-20T15:40:12;4.70;99.90
5172;DHT22;2605;49.770;9.868;2023-12-20T15:42:39;4.70;99.90
5172;DHT22;2605;49.770;9.868;2023-12-20T15:45:06;4.60;99.90
5172;DHT22;2605;49.770;9.868;2023-12-20T15:47:35;4.60;99.90
5172;DHT22;2605;49.770;9.868;2023-12-20T15:50:02;4.60;99.90
5172;DHT22;2605;49.770;9.868;2023-12-20T15:52:28;4.50;99.90
5172;DHT22;2605;49.770;9.868;2023-12-20T15:54:53;4.50;99.90
5172;DHT22;2605;49.770;9.868;2023-12-20T15:57:19;4.50;99.90
5172;DHT22;2605;49.770;9.868;2023-12-20T15:59:45;4.40;99.90
5172;DHT22;2605;49.770;9.868;2023-12-20T16:02:10;4.40;99.90
5172;DHT22;2605;49.770;9.868;2023-12-20T16:04:36;4.40;99.90
5172;DHT22;2605;49.770;9.868;2023-12-20T16:07:02;4.40;99.90
5172;DHT22;2605;49.770;9.868;2023-12-20T16:09:27;4.50;99.90
5172;DHT22;2605;49.770;9.868;2023-12-20T16:11:53;4.50;99.90